Provident City, Texas
Current Conditions -  °F | °C
As of 12:35 PM on Sunday 21 Dec 2014 (Local Time) from KARM Reporting Station
Overcast Overcast  
Wind Chill: 57°   Ceiling: 8000
Heat Index: 57°   Visibility: 10mi
Dew Point: 51°   Wind: 3mph
Humidity: 80%   Direction: 90°E
Pressure: 30.04"   Gusts: NA
Location:  29.1804°N, 96.4231°W
Report Text: KARM 211835Z AUTO 09003KT 10SM BKN080 OVC090 14/10 A3004 RMK AO2 T01370103
Loading
Personal Weather Stations






























Interactive Weather Map New forecast layout! Learn more

10-Day Weather Forecast

Advertisements
Track Severe Weather on mobile